createdAt,value
2019-04-25T00:01:40.138Z,12.30
2019-04-25T00:04:44.635Z,12.30
2019-04-25T00:07:48.449Z,12.20
2019-04-25T00:10:52.008Z,12.10
2019-04-25T00:13:55.517Z,12.10
2019-04-25T00:16:58.497Z,12.10
2019-04-25T00:20:02.170Z,12.10
2019-04-25T00:23:15.182Z,12.20
2019-04-25T00:26:27.704Z,12.30
2019-04-25T00:29:31.879Z,12.40
2019-04-25T00:32:35.311Z,12.40
2019-04-25T00:35:38.823Z,12.50
2019-04-25T00:38:45.489Z,12.60
2019-04-25T00:41:47.599Z,12.60
2019-04-25T00:44:51.559Z,12.70
2019-04-25T00:47:56.819Z,12.60
2019-04-25T00:51:01.764Z,12.60
2019-04-25T00:54:05.568Z,12.50
2019-04-25T00:57:09.554Z,12.50
2019-04-25T01:00:32.703Z,12.40
2019-04-25T01:03:36.743Z,12.30
2019-04-25T01:06:41.662Z,12.20
2019-04-25T01:09:46.215Z,12.20
2019-04-25T01:12:52.337Z,12.10
2019-04-25T01:15:56.699Z,12.00
2019-04-25T01:19:00.205Z,11.90
2019-04-25T01:22:03.891Z,11.80
2019-04-25T01:25:08.720Z,11.80
2019-04-25T01:28:13.563Z,11.70
2019-04-25T01:31:19.913Z,11.60
2019-04-25T01:34:40.502Z,11.60
2019-04-25T01:37:51.113Z,11.60
2019-04-25T01:41:23.928Z,11.70
2019-04-25T01:44:31.392Z,11.80
2019-04-25T01:47:34.848Z,11.90
2019-04-25T01:50:38.412Z,11.90
2019-04-25T01:53:41.763Z,12.00
2019-04-25T01:56:45.008Z,12.00
2019-04-25T01:59:49.755Z,12.00
2019-04-25T02:02:54.885Z,12.00
2019-04-25T02:05:59.121Z,12.00
2019-04-25T02:09:05.273Z,12.00
2019-04-25T02:12:16.075Z,12.10
2019-04-25T02:15:23.465Z,12.10
2019-04-25T02:18:27.171Z,12.10
2019-04-25T02:21:30.635Z,12.00
2019-04-25T02:24:34.075Z,12.00
2019-04-25T02:27:37.579Z,11.90
2019-04-25T02:30:42.067Z,11.90
2019-04-25T02:33:45.613Z,11.90
2019-04-25T02:36:48.974Z,11.90
2019-04-25T02:39:55.508Z,11.80
2019-04-25T02:43:00.123Z,11.80
2019-04-25T02:46:25.107Z,11.80
2019-04-25T02:49:39.629Z,11.80
2019-04-25T02:52:50.633Z,11.80
2019-04-25T02:55:54.017Z,11.80
2019-04-25T02:58:58.327Z,11.80
2019-04-25T03:02:04.793Z,11.80
2019-04-25T03:05:09.794Z,11.80
2019-04-25T03:08:14.280Z,11.70
2019-04-25T03:11:17.915Z,11.70
2019-04-25T03:14:21.214Z,11.50
2019-04-25T03:17:24.917Z,11.50
2019-04-25T03:20:46.612Z,11.40
2019-04-25T03:23:51.074Z,11.40
2019-04-25T03:26:54.591Z,11.50
2019-04-25T03:29:57.937Z,11.50
2019-04-25T03:33:03.714Z,11.60
2019-04-25T03:36:07.837Z,11.80
2019-04-25T03:39:11.247Z,11.90
2019-04-25T03:42:14.713Z,11.90
2019-04-25T03:45:19.167Z,11.90
2019-04-25T03:48:25.109Z,12.00
2019-04-25T03:51:27.884Z,11.90
2019-04-25T03:54:31.314Z,11.80
2019-04-25T03:57:34.780Z,11.80
2019-04-25T04:00:38.296Z,11.80
2019-04-25T04:03:41.783Z,11.80
2019-04-25T04:06:45.292Z,11.70
2019-04-25T04:09:48.823Z,11.80
2019-04-25T04:12:52.307Z,11.90
2019-04-25T04:15:56.719Z,11.90
2019-04-25T04:19:00.415Z,12.00
2019-04-25T04:22:14.760Z,12.10
2019-04-25T04:25:18.375Z,12.10
2019-04-25T04:28:21.787Z,12.10
2019-04-25T04:31:25.293Z,12.10
2019-04-25T04:34:28.524Z,12.10
2019-04-25T04:37:33.269Z,12.20
2019-04-25T04:40:36.736Z,12.20
2019-04-25T04:43:40.017Z,12.10
2019-04-25T04:46:44.000Z,12.20
2019-04-25T04:49:47.320Z,12.20
2019-04-25T04:52:51.752Z,12.20
2019-04-25T04:55:55.251Z,12.10
2019-04-25T04:58:58.643Z,12.00
2019-04-25T05:02:18.844Z,12.00
2019-04-25T05:05:47.164Z,12.00
2019-04-25T05:08:54.844Z,12.00
2019-04-25T05:11:58.273Z,12.00
2019-04-25T05:15:01.772Z,12.10
2019-04-25T05:18:05.227Z,12.10
2019-04-25T05:21:09.688Z,12.20
2019-04-25T05:24:15.221Z,12.30
2019-04-25T05:27:33.725Z,12.40
2019-04-25T05:30:29.967Z,12.40
2019-04-25T05:33:33.865Z,12.50
2019-04-25T05:36:37.556Z,12.50
2019-04-25T05:39:41.114Z,12.50
2019-04-25T05:42:59.475Z,12.60
2019-04-25T05:46:03.376Z,12.70
2019-04-25T05:49:06.877Z,12.80
2019-04-25T05:52:10.318Z,13.00
2019-04-25T05:55:14.343Z,13.00
2019-04-25T05:58:19.027Z,13.10
2019-04-25T06:01:22.897Z,13.20
2019-04-25T06:04:27.771Z,13.20
2019-04-25T06:07:31.081Z,13.20
2019-04-25T06:10:53.947Z,13.30
2019-04-25T06:14:03.492Z,13.20
2019-04-25T06:17:11.032Z,13.20
2019-04-25T06:20:15.954Z,13.10
2019-04-25T06:23:37.295Z,13.10
2019-04-25T06:26:51.879Z,13.10
2019-04-25T06:30:01.278Z,13.10
2019-04-25T06:33:04.699Z,13.30
2019-04-25T06:36:08.240Z,13.60
2019-04-25T06:39:21.992Z,13.70
2019-04-25T06:42:25.772Z,13.60
2019-04-25T06:46:00.434Z,13.50
2019-04-25T06:49:15.285Z,13.40
2019-04-25T06:52:18.804Z,13.40
2019-04-25T06:55:25.979Z,13.40
2019-04-25T06:58:30.984Z,13.40
2019-04-25T07:01:36.769Z,13.50
2019-04-25T07:04:43.478Z,13.70
2019-04-25T07:07:49.734Z,14.30
2019-04-25T07:10:53.906Z,15.00
2019-04-25T07:13:58.539Z,15.70
2019-04-25T07:17:04.342Z,16.10
2019-04-25T07:20:11.072Z,16.50
2019-04-25T07:23:14.585Z,16.70
2019-04-25T07:26:36.870Z,17.00
2019-04-25T07:29:56.563Z,17.60
2019-04-25T07:33:14.332Z,17.60
2019-04-25T07:36:17.748Z,18.50
2019-04-25T07:39:29.529Z,18.60
2019-04-25T07:42:45.247Z,18.50
2019-04-25T07:45:54.874Z,19.10
2019-04-25T07:49:03.372Z,19.70
2019-04-25T07:52:11.324Z,20.00
2019-04-25T07:55:23.384Z,19.50
2019-04-25T07:58:49.638Z,19.60
2019-04-25T08:01:48.185Z,20.30
2019-04-25T08:04:55.819Z,21.50
2019-04-25T08:08:08.135Z,21.60
2019-04-25T08:11:11.823Z,21.50
2019-04-25T08:14:34.158Z,21.00
2019-04-25T08:18:13.930Z,20.10
2019-04-25T08:21:17.471Z,19.90
2019-04-25T08:24:21.063Z,19.30
2019-04-25T08:27:24.331Z,19.00
2019-04-25T08:30:27.835Z,18.90
2019-04-25T08:33:34.222Z,18.70
2019-04-25T08:36:38.567Z,18.30
2019-04-25T08:39:45.065Z,18.90
2019-04-25T08:42:48.527Z,19.60
2019-04-25T08:45:52.000Z,21.10
2019-04-25T08:49:11.266Z,22.20
2019-04-25T08:52:15.009Z,23.00
2019-04-25T08:55:37.062Z,23.30
2019-04-25T08:59:04.143Z,22.90
2019-04-25T09:02:28.537Z,23.20
2019-04-25T09:05:37.421Z,23.40
2019-04-25T09:08:41.452Z,22.90
2019-04-25T09:11:46.917Z,23.40
2019-04-25T09:14:50.458Z,24.30
2019-04-25T09:17:54.704Z,25.40
2019-04-25T09:20:58.540Z,24.80
2019-04-25T09:24:03.355Z,24.70
2019-04-25T09:27:07.067Z,24.30
2019-04-25T09:30:10.870Z,25.40
2019-04-25T09:33:14.404Z,24.90
2019-04-25T09:36:17.948Z,25.50
2019-04-25T09:39:37.466Z,24.70
2019-04-25T09:42:41.509Z,25.90
2019-04-25T09:45:57.812Z,26.20
2019-04-25T09:49:20.515Z,27.80
2019-04-25T09:52:24.439Z,28.70
2019-04-25T09:55:44.078Z,27.80
2019-04-25T09:58:56.952Z,27.70
2019-04-25T10:02:00.423Z,29.30
2019-04-25T10:05:04.423Z,30.20
2019-04-25T10:13:19.300Z,29.40
2019-04-25T10:26:23.315Z,30.90
2019-04-25T10:29:54.488Z,31.60
2019-04-25T10:30:53.122Z,30.10
2019-04-25T10:32:57.190Z,31.90
2019-04-25T10:36:01.211Z,32.30
2019-04-25T10:39:10.879Z,32.90
2019-04-25T10:42:13.641Z,32.40
2019-04-25T10:45:23.191Z,31.60
2019-04-25T10:48:24.025Z,32.60
2019-04-25T10:51:27.680Z,33.90
2019-04-25T10:54:34.962Z,33.50
2019-04-25T10:57:36.630Z,32.70
2019-04-25T11:00:42.218Z,33.00
2019-04-25T11:04:09.362Z,32.70
2019-04-25T11:07:13.683Z,32.60
2019-04-25T11:10:17.904Z,33.10
2019-04-25T11:13:21.516Z,31.50
2019-04-25T11:16:26.726Z,32.80
2019-04-25T11:19:30.271Z,33.80
2019-04-25T11:22:34.257Z,34.60
2019-04-25T11:25:37.579Z,33.50
2019-04-25T11:28:42.666Z,34.50
2019-04-25T11:31:48.839Z,33.30
2019-04-25T11:34:53.502Z,32.80
2019-04-25T11:38:00.316Z,35.10
2019-04-25T11:41:09.431Z,33.20
2019-04-25T11:44:13.875Z,33.40
2019-04-25T11:47:18.653Z,33.00
2019-04-25T11:50:22.400Z,33.60
2019-04-25T11:53:25.855Z,34.00
2019-04-25T11:56:29.381Z,35.30
2019-04-25T11:59:34.165Z,33.70
2019-04-25T12:02:39.738Z,35.50
2019-04-25T12:05:45.823Z,36.00
2019-04-25T12:08:49.089Z,35.40
2019-04-25T12:11:54.313Z,33.30
2019-04-25T12:14:58.199Z,32.40
2019-04-25T12:18:01.229Z,32.30
2019-04-25T12:21:04.613Z,33.00
2019-04-25T12:24:09.260Z,33.50
2019-04-25T12:27:12.812Z,35.60
2019-04-25T12:30:16.447Z,34.40
2019-04-25T12:33:21.612Z,34.90
2019-04-25T12:36:26.513Z,34.60
2019-04-25T12:39:30.035Z,36.70
2019-04-25T12:42:34.378Z,36.70
2019-04-25T12:46:03.424Z,37.20
2019-04-25T12:49:07.019Z,36.40
2019-04-25T12:52:11.907Z,36.90
2019-04-25T12:55:15.494Z,35.70
2019-04-25T12:58:18.855Z,35.60
2019-04-25T13:01:23.063Z,36.70
2019-04-25T13:04:27.503Z,38.70
2019-04-25T13:07:31.055Z,40.20
2019-04-25T13:10:34.960Z,39.30
2019-04-25T13:13:38.427Z,37.00
2019-04-25T13:16:41.831Z,37.90
2019-04-25T13:19:45.215Z,38.20
2019-04-25T13:22:48.622Z,37.60
2019-04-25T13:25:54.115Z,38.20
2019-04-25T13:29:21.179Z,38.70
2019-04-25T13:32:58.939Z,38.20
2019-04-25T13:36:08.508Z,37.90
2019-04-25T13:39:16.593Z,39.20
2019-04-25T13:42:20.115Z,39.70
2019-04-25T13:45:24.327Z,38.70
2019-04-25T13:48:28.017Z,38.80
2019-04-25T13:51:31.548Z,39.40
2019-04-25T13:54:35.098Z,40.00
2019-04-25T13:57:38.524Z,39.50
2019-04-25T14:00:44.098Z,37.30
2019-04-25T14:03:47.567Z,36.70
2019-04-25T14:06:51.082Z,37.60
2019-04-25T14:09:54.576Z,39.30
2019-04-25T14:12:58.096Z,41.50
2019-04-25T14:16:25.382Z,40.90
2019-04-25T14:19:44.330Z,38.30
2019-04-25T14:22:47.970Z,38.40
2019-04-25T14:25:51.304Z,39.50
2019-04-25T14:28:54.616Z,40.60
2019-04-25T14:31:58.112Z,41.20
2019-04-25T14:35:03.389Z,40.50
2019-04-25T14:38:07.566Z,38.30
2019-04-25T14:41:11.377Z,37.90
2019-04-25T14:44:14.788Z,39.20
2019-04-25T14:47:18.410Z,40.90
2019-04-25T14:50:21.887Z,40.10
2019-04-25T14:53:25.809Z,40.70
2019-04-25T14:56:37.968Z,41.10
2019-04-25T14:59:41.411Z,42.00
2019-04-25T15:02:45.012Z,41.60
2019-04-25T15:05:48.539Z,39.30
2019-04-25T15:08:52.125Z,37.20
2019-04-25T15:11:55.556Z,37.60
2019-04-25T15:14:59.036Z,39.50
2019-04-25T15:18:04.053Z,40.10
2019-04-25T15:21:07.494Z,39.50
2019-04-25T15:24:11.076Z,41.10
2019-04-25T15:27:14.597Z,39.60
2019-04-25T15:30:28.313Z,39.40
2019-04-25T15:33:30.615Z,39.90
2019-04-25T15:36:50.474Z,40.50
2019-04-25T15:39:58.506Z,39.90
2019-04-25T15:43:26.191Z,40.60
2019-04-25T15:46:32.348Z,38.60
2019-04-25T15:49:36.837Z,36.80
2019-04-25T15:52:41.499Z,36.40
2019-04-25T15:55:45.586Z,35.10
2019-04-25T15:58:49.222Z,36.30
2019-04-25T16:01:53.028Z,36.00
2019-04-25T16:04:56.604Z,35.20
2019-04-25T16:08:00.035Z,34.10
2019-04-25T16:11:04.629Z,33.40
2019-04-25T16:14:08.172Z,33.30
2019-04-25T16:17:12.455Z,32.90
2019-04-25T16:20:16.064Z,32.80
2019-04-25T16:23:19.591Z,32.80
2019-04-25T16:26:23.532Z,32.50
2019-04-25T16:29:27.732Z,32.60
2019-04-25T16:32:31.299Z,33.10
2019-04-25T16:35:35.462Z,33.10
2019-04-25T16:38:39.155Z,32.80
2019-04-25T16:41:42.666Z,32.60
2019-04-25T16:44:46.230Z,32.20
2019-04-25T16:47:49.766Z,31.70
2019-04-25T16:50:53.252Z,31.80
2019-04-25T16:53:56.623Z,32.00
2019-04-25T16:57:00.136Z,32.70
2019-04-25T17:00:04.477Z,32.90
2019-04-25T17:03:09.834Z,32.30
2019-04-25T17:06:13.563Z,31.80
2019-04-25T17:09:17.162Z,31.20
2019-04-25T17:12:20.317Z,30.30
2019-04-25T17:15:32.056Z,29.30
2019-04-25T17:18:42.284Z,28.50
2019-04-25T17:21:46.091Z,27.90
2019-04-25T17:24:49.487Z,27.80
2019-04-25T17:27:52.874Z,27.40
2019-04-25T17:31:05.145Z,26.50
2019-04-25T17:34:16.691Z,26.00
2019-04-25T17:37:28.087Z,25.90
2019-04-25T17:40:33.774Z,25.60
2019-04-25T17:43:37.320Z,25.30
2019-04-25T17:46:41.858Z,25.00
2019-04-25T17:49:45.352Z,24.70
2019-04-25T17:52:48.644Z,24.50
2019-04-25T17:55:52.040Z,24.30
2019-04-25T17:58:55.445Z,24.10
2019-04-25T18:01:58.968Z,23.90
2019-04-25T18:05:02.447Z,23.70
2019-04-25T18:08:05.830Z,23.50
2019-04-25T18:11:09.587Z,23.20
2019-04-25T18:14:13.107Z,22.90
2019-04-25T18:17:16.019Z,22.70
2019-04-25T18:20:22.087Z,22.50
2019-04-25T18:23:47.845Z,22.20
2019-04-25T18:27:11.575Z,21.90
2019-04-25T18:30:15.047Z,21.70
2019-04-25T18:33:37.306Z,21.50
2019-04-25T18:36:47.207Z,21.30
2019-04-25T18:39:57.062Z,21.10
2019-04-25T18:43:25.707Z,20.80
2019-04-25T18:46:32.523Z,20.70
2019-04-25T18:49:36.367Z,20.50
2019-04-25T18:52:55.913Z,20.30
2019-04-25T18:56:06.263Z,20.10
2019-04-25T18:59:41.574Z,20.00
2019-04-25T19:03:22.468Z,19.80
2019-04-25T19:06:21.031Z,19.60
2019-04-25T19:09:24.767Z,19.40
2019-04-25T19:12:28.298Z,19.30
2019-04-25T19:15:31.479Z,19.10
2019-04-25T19:18:35.028Z,19.00
2019-04-25T19:21:39.189Z,18.80
2019-04-25T19:24:44.959Z,18.60
2019-04-25T19:27:48.970Z,18.50
2019-04-25T19:30:52.517Z,18.30
2019-04-25T19:33:56.743Z,18.20
2019-04-25T19:37:00.200Z,18.00
2019-04-25T19:40:23.427Z,17.80
2019-04-25T19:43:48.688Z,17.60
2019-04-25T19:46:52.275Z,17.50
2019-04-25T19:49:57.329Z,17.40
2019-04-25T19:53:00.833Z,17.30
2019-04-25T19:56:04.476Z,17.20
2019-04-25T19:59:07.965Z,17.10
2019-04-25T20:02:20.804Z,16.90
2019-04-25T20:05:37.000Z,16.80
2019-04-25T20:08:50.683Z,16.70
2019-04-25T20:11:55.079Z,16.50
2019-04-25T20:14:58.896Z,16.40
2019-04-25T20:18:02.520Z,16.40
2019-04-25T20:21:06.283Z,16.30
2019-04-25T20:24:10.115Z,16.20
2019-04-25T20:27:13.899Z,16.10
2019-04-25T20:30:17.937Z,16.00
2019-04-25T20:33:21.651Z,15.90
2019-04-25T20:36:25.118Z,15.80
2019-04-25T20:39:28.714Z,15.80
2019-04-25T20:42:32.616Z,15.70
2019-04-25T20:45:36.480Z,15.70
2019-04-25T20:48:39.995Z,15.60
2019-04-25T20:51:44.341Z,15.60
2019-04-25T20:54:48.829Z,15.50
2019-04-25T20:57:53.250Z,15.50
2019-04-25T21:00:59.633Z,15.40
2019-04-25T21:04:12.654Z,15.30
2019-04-25T21:07:08.543Z,15.20
2019-04-25T21:10:12.053Z,15.10
2019-04-25T21:13:20.393Z,15.10
2019-04-25T21:16:56.414Z,14.90
2019-04-25T21:20:00.239Z,14.70
2019-04-25T21:23:03.787Z,14.60
2019-04-25T21:26:07.271Z,14.40
2019-04-25T21:29:10.780Z,14.30
2019-04-25T21:32:16.059Z,14.20
2019-04-25T21:35:19.911Z,14.10
2019-04-25T21:38:23.399Z,14.10
2019-04-25T21:41:55.626Z,13.90
2019-04-25T21:45:00.384Z,13.80
2019-04-25T21:48:04.048Z,13.70
2019-04-25T21:51:26.616Z,13.70
2019-04-25T21:54:30.112Z,13.70
2019-04-25T21:57:33.680Z,13.60
2019-04-25T22:10:12.645Z,13.50
2019-04-25T22:22:52.702Z,13.30
2019-04-25T22:25:56.313Z,13.20
2019-04-25T22:29:01.209Z,13.20
2019-04-25T22:32:36.108Z,13.20
2019-04-25T22:35:59.209Z,13.10
2019-04-25T22:39:09.520Z,13.10
2019-04-25T22:42:14.219Z,13.00
2019-04-25T22:45:17.760Z,13.00
2019-04-25T22:48:25.914Z,13.00
2019-04-25T22:51:29.539Z,13.00
2019-04-25T22:54:33.439Z,12.90
2019-04-25T22:57:36.847Z,12.90
2019-04-25T23:00:40.350Z,12.90
2019-04-25T23:03:47.707Z,12.80
2019-04-25T23:06:51.456Z,12.70
2019-04-25T23:09:54.990Z,12.70
2019-04-25T23:12:58.663Z,12.70
2019-04-25T23:16:02.489Z,12.70
2019-04-25T23:19:10.365Z,12.60
2019-04-25T23:22:14.648Z,12.60
2019-04-25T23:25:21.064Z,12.60
2019-04-25T23:28:27.220Z,12.50
2019-04-25T23:31:31.776Z,12.40
2019-04-25T23:34:35.564Z,12.30
2019-04-25T23:37:39.007Z,12.20
2019-04-25T23:40:42.504Z,12.10
2019-04-25T23:43:46.071Z,12.10
2019-04-25T23:46:49.612Z,12.10
2019-04-25T23:49:52.999Z,12.10
2019-04-25T23:52:56.616Z,12.10
2019-04-25T23:56:00.144Z,12.10
2019-04-25T23:59:03.607Z,12.10
